sensor_id;sensor_type;location;lat;lon;timestamp;pressure;altitude;pressure_sealevel;temperature;humidity
16120;BME280;12670;53.502;10.252;2023-04-29T00:02:09;100702.38;;;10.25;100.00
16120;BME280;12670;53.502;10.252;2023-04-29T00:05:12;100697.31;;;10.19;100.00
16120;BME280;12670;53.502;10.252;2023-04-29T00:08:15;100696.84;;;10.31;100.00
16120;BME280;12670;53.502;10.252;2023-04-29T00:11:19;100706.69;;;10.06;100.00
16120;BME280;12670;53.502;10.252;2023-04-29T00:14:22;100695.59;;;10.18;100.00
16120;BME280;12670;53.502;10.252;2023-04-29T00:17:25;100687.81;;;10.13;100.00
16120;BME280;12670;53.502;10.252;2023-04-29T00:20:27;100696.31;;;10.23;100.00
16120;BME280;12670;53.502;10.252;2023-04-29T00:23:30;100699.66;;;10.05;100.00
16120;BME280;12670;53.502;10.252;2023-04-29T00:26:34;100703.94;;;10.09;100.00
16120;BME280;12670;53.502;10.252;2023-04-29T00:29:37;100702.25;;;10.06;100.00
16120;BME280;12670;53.502;10.252;2023-04-29T00:32:39;100702.66;;;9.96;100.00
16120;BME280;12670;53.502;10.252;2023-04-29T00:35:43;100705.47;;;9.93;100.00
16120;BME280;12670;53.502;10.252;2023-04-29T00:38:46;100703.78;;;10.12;100.00
16120;BME280;12670;53.502;10.252;2023-04-29T00:41:50;100707.91;;;10.19;100.00
16120;BME280;12670;53.502;10.252;2023-04-29T00:44:53;100693.66;;;10.23;100.00
16120;BME280;12670;53.502;10.252;2023-04-29T00:47:56;100708.56;;;10.04;100.00
16120;BME280;12670;53.502;10.252;2023-04-29T00:50:58;100708.56;;;10.04;100.00
16120;BME280;12670;53.502;10.252;2023-04-29T00:54:01;100720.00;;;10.04;100.00
16120;BME280;12670;53.502;10.252;2023-04-29T00:57:06;100721.06;;;10.22;100.00
16120;BME280;12670;53.502;10.252;2023-04-29T01:00:09;100727.13;;;10.02;100.00
16120;BME280;12670;53.502;10.252;2023-04-29T01:03:12;100727.09;;;10.04;100.00
16120;BME280;12670;53.502;10.252;2023-04-29T01:06:23;100731.38;;;10.30;100.00
16120;BME280;12670;53.502;10.252;2023-04-29T01:13:08;100737.34;;;9.91;100.00
16120;BME280;12670;53.502;10.252;2023-04-29T01:16:20;100734.63;;;10.14;100.00
16120;BME280;12670;53.502;10.252;2023-04-29T01:19:38;100737.91;;;10.21;100.00
16120;BME280;12670;53.502;10.252;2023-04-29T01:22:42;100749.25;;;10.03;100.00
16120;BME280;12670;53.502;10.252;2023-04-29T01:25:46;100755.97;;;9.88;100.00
16120;BME280;12670;53.502;10.252;2023-04-29T01:28:53;100751.78;;;9.82;100.00
16120;BME280;12670;53.502;10.252;2023-04-29T01:32:04;100758.81;;;9.83;100.00
16120;BME280;12670;53.502;10.252;2023-04-29T01:35:25;100763.38;;;10.02;100.00
16120;BME280;12670;53.502;10.252;2023-04-29T01:38:36;100764.34;;;9.77;100.00
16120;BME280;12670;53.502;10.252;2023-04-29T01:41:48;100766.00;;;10.03;100.00
16120;BME280;12670;53.502;10.252;2023-04-29T01:44:54;100759.09;;;9.99;100.00
16120;BME280;12670;53.502;10.252;2023-04-29T01:47:58;100770.94;;;10.12;100.00
16120;BME280;12670;53.502;10.252;2023-04-29T01:51:01;100775.13;;;10.18;100.00
16120;BME280;12670;53.502;10.252;2023-04-29T01:54:04;100779.75;;;10.13;100.00
16120;BME280;12670;53.502;10.252;2023-04-29T01:57:08;100781.16;;;10.00;100.00
16120;BME280;12670;53.502;10.252;2023-04-29T02:00:11;100785.00;;;10.14;100.00
16120;BME280;12670;53.502;10.252;2023-04-29T02:03:14;100787.34;;;10.22;100.00
16120;BME280;12670;53.502;10.252;2023-04-29T02:06:18;100789.19;;;10.20;100.00
16120;BME280;12670;53.502;10.252;2023-04-29T02:09:20;100796.13;;;10.24;100.00
16120;BME280;12670;53.502;10.252;2023-04-29T02:12:24;100794.00;;;10.10;100.00
16120;BME280;12670;53.502;10.252;2023-04-29T02:15:27;100798.06;;;10.19;100.00
16120;BME280;12670;53.502;10.252;2023-04-29T02:18:30;100796.94;;;10.03;100.00
16120;BME280;12670;53.502;10.252;2023-04-29T02:21:32;100807.41;;;10.06;100.00
16120;BME280;12670;53.502;10.252;2023-04-29T02:24:36;100801.78;;;10.15;100.00
16120;BME280;12670;53.502;10.252;2023-04-29T02:27:39;100807.66;;;10.23;100.00
16120;BME280;12670;53.502;10.252;2023-04-29T02:30:42;100817.09;;;10.30;100.00
16120;BME280;12670;53.502;10.252;2023-04-29T02:33:45;100813.84;;;10.22;100.00
16120;BME280;12670;53.502;10.252;2023-04-29T02:36:47;100823.66;;;10.20;100.00
16120;BME280;12670;53.502;10.252;2023-04-29T02:39:50;100821.97;;;10.18;100.00
16120;BME280;12670;53.502;10.252;2023-04-29T02:42:54;100824.53;;;10.21;100.00
16120;BME280;12670;53.502;10.252;2023-04-29T02:45:57;100828.97;;;10.20;100.00
16120;BME280;12670;53.502;10.252;2023-04-29T02:49:01;100833.34;;;10.21;100.00
16120;BME280;12670;53.502;10.252;2023-04-29T02:52:04;100832.72;;;10.14;100.00
16120;BME280;12670;53.502;10.252;2023-04-29T02:55:07;100839.75;;;10.15;100.00
16120;BME280;12670;53.502;10.252;2023-04-29T02:58:11;100843.13;;;9.96;100.00
16120;BME280;12670;53.502;10.252;2023-04-29T03:01:13;100856.16;;;10.02;100.00
16120;BME280;12670;53.502;10.252;2023-04-29T03:04:16;100851.09;;;10.19;100.00
16120;BME280;12670;53.502;10.252;2023-04-29T03:07:19;100864.94;;;10.04;100.00
16120;BME280;12670;53.502;10.252;2023-04-29T03:10:22;100858.25;;;10.17;100.00
16120;BME280;12670;53.502;10.252;2023-04-29T03:13:26;100855.66;;;10.15;100.00
16120;BME280;12670;53.502;10.252;2023-04-29T03:16:28;100858.84;;;10.25;100.00
16120;BME280;12670;53.502;10.252;2023-04-29T03:19:31;100855.69;;;10.14;100.00
16120;BME280;12670;53.502;10.252;2023-04-29T03:22:34;100854.28;;;10.05;100.00
16120;BME280;12670;53.502;10.252;2023-04-29T03:25:37;100857.84;;;10.04;100.00
16120;BME280;12670;53.502;10.252;2023-04-29T03:28:42;100871.16;;;10.03;100.00
16120;BME280;12670;53.502;10.252;2023-04-29T03:31:44;100869.31;;;10.05;100.00
16120;BME280;12670;53.502;10.252;2023-04-29T03:34:47;100871.16;;;10.03;100.00
16120;BME280;12670;53.502;10.252;2023-04-29T03:37:50;100885.22;;;10.05;100.00
16120;BME280;12670;53.502;10.252;2023-04-29T03:40:53;100885.44;;;9.99;100.00
16120;BME280;12670;53.502;10.252;2023-04-29T03:43:58;100890.28;;;10.11;100.00
16120;BME280;12670;53.502;10.252;2023-04-29T03:47:01;100893.50;;;10.19;100.00
16120;BME280;12670;53.502;10.252;2023-04-29T03:50:05;100890.84;;;9.96;100.00
16120;BME280;12670;53.502;10.252;2023-04-29T03:53:08;100895.06;;;10.01;100.00
16120;BME280;12670;53.502;10.252;2023-04-29T03:56:11;100897.78;;;10.00;100.00
16120;BME280;12670;53.502;10.252;2023-04-29T03:59:15;100901.97;;;10.05;100.00
16120;BME280;12670;53.502;10.252;2023-04-29T04:02:17;100901.44;;;9.96;100.00
16120;BME280;12670;53.502;10.252;2023-04-29T04:05:20;100911.19;;;9.95;100.00
16120;BME280;12670;53.502;10.252;2023-04-29T04:08:25;100917.13;;;10.02;100.00
16120;BME280;12670;53.502;10.252;2023-04-29T04:11:28;100915.63;;;9.95;100.00
16120;BME280;12670;53.502;10.252;2023-04-29T04:14:32;100922.41;;;10.02;100.00
16120;BME280;12670;53.502;10.252;2023-04-29T04:17:34;100929.38;;;9.81;100.00
16120;BME280;12670;53.502;10.252;2023-04-29T04:20:37;100948.28;;;9.95;100.00
16120;BME280;12670;53.502;10.252;2023-04-29T04:23:40;100946.41;;;9.99;100.00
16120;BME280;12670;53.502;10.252;2023-04-29T04:26:42;100944.03;;;9.91;100.00
16120;BME280;12670;53.502;10.252;2023-04-29T04:29:46;100948.22;;;9.73;100.00
16120;BME280;12670;53.502;10.252;2023-04-29T04:32:49;100950.66;;;9.78;100.00
16120;BME280;12670;53.502;10.252;2023-04-29T04:35:52;100961.97;;;9.83;100.00
16120;BME280;12670;53.502;10.252;2023-04-29T04:38:54;100962.47;;;9.69;100.00
16120;BME280;12670;53.502;10.252;2023-04-29T04:41:57;100974.03;;;9.67;100.00
16120;BME280;12670;53.502;10.252;2023-04-29T04:45:01;100970.91;;;9.80;100.00
16120;BME280;12670;53.502;10.252;2023-04-29T04:48:04;100970.47;;;9.93;100.00
16120;BME280;12670;53.502;10.252;2023-04-29T04:51:07;100980.25;;;9.66;100.00
16120;BME280;12670;53.502;10.252;2023-04-29T04:54:10;100973.50;;;9.57;100.00
16120;BME280;12670;53.502;10.252;2023-04-29T04:57:13;100985.81;;;9.58;100.00
16120;BME280;12670;53.502;10.252;2023-04-29T05:00:18;100994.13;;;9.72;100.00
16120;BME280;12670;53.502;10.252;2023-04-29T05:03:21;100997.28;;;9.58;100.00
16120;BME280;12670;53.502;10.252;2023-04-29T05:06:24;101008.53;;;9.65;100.00
16120;BME280;12670;53.502;10.252;2023-04-29T05:09:26;101011.78;;;9.73;100.00
16120;BME280;12670;53.502;10.252;2023-04-29T05:12:29;101019.44;;;9.56;100.00
16120;BME280;12670;53.502;10.252;2023-04-29T05:15:33;101024.16;;;9.46;100.00
16120;BME280;12670;53.502;10.252;2023-04-29T05:18:36;101031.97;;;9.51;100.00
16120;BME280;12670;53.502;10.252;2023-04-29T05:21:39;101033.50;;;9.58;100.00
16120;BME280;12670;53.502;10.252;2023-04-29T05:24:42;101042.97;;;9.65;100.00
16120;BME280;12670;53.502;10.252;2023-04-29T05:27:44;101031.03;;;9.78;100.00
16120;BME280;12670;53.502;10.252;2023-04-29T05:30:50;101037.16;;;9.80;100.00
16120;BME280;12670;53.502;10.252;2023-04-29T05:33:53;101045.56;;;9.93;100.00
16120;BME280;12670;53.502;10.252;2023-04-29T05:36:56;101052.13;;;9.81;100.00
16120;BME280;12670;53.502;10.252;2023-04-29T05:39:58;101052.94;;;9.83;100.00
16120;BME280;12670;53.502;10.252;2023-04-29T05:43:01;101054.38;;;9.94;100.00
16120;BME280;12670;53.502;10.252;2023-04-29T05:46:05;101056.56;;;9.81;100.00
16120;BME280;12670;53.502;10.252;2023-04-29T05:49:08;101059.78;;;9.64;100.00
16120;BME280;12670;53.502;10.252;2023-04-29T05:52:10;101062.88;;;9.77;100.00
16120;BME280;12670;53.502;10.252;2023-04-29T05:55:14;101065.44;;;9.80;100.00
16120;BME280;12670;53.502;10.252;2023-04-29T05:58:17;101059.09;;;10.10;100.00
16120;BME280;12670;53.502;10.252;2023-04-29T06:01:21;101070.16;;;10.23;100.00
16120;BME280;12670;53.502;10.252;2023-04-29T06:04:24;101073.00;;;10.44;100.00
16120;BME280;12670;53.502;10.252;2023-04-29T06:07:27;101077.94;;;10.53;100.00
16120;BME280;12670;53.502;10.252;2023-04-29T06:10:29;101077.16;;;10.74;100.00
16120;BME280;12670;53.502;10.252;2023-04-29T06:13:32;101081.88;;;10.89;100.00
16120;BME280;12670;53.502;10.252;2023-04-29T06:16:36;101081.72;;;10.94;100.00
16120;BME280;12670;53.502;10.252;2023-04-29T06:19:39;101088.47;;;10.56;100.00
16120;BME280;12670;53.502;10.252;2023-04-29T06:22:42;101101.56;;;10.35;100.00
16120;BME280;12670;53.502;10.252;2023-04-29T06:25:44;101098.00;;;10.61;100.00
16120;BME280;12670;53.502;10.252;2023-04-29T06:28:47;101096.69;;;10.73;100.00
16120;BME280;12670;53.502;10.252;2023-04-29T06:31:51;101095.69;;;10.76;100.00
16120;BME280;12670;53.502;10.252;2023-04-29T06:34:54;101098.19;;;10.80;100.00
16120;BME280;12670;53.502;10.252;2023-04-29T06:37:57;101107.75;;;11.08;100.00
16120;BME280;12670;53.502;10.252;2023-04-29T06:40:59;101108.22;;;10.95;100.00
16120;BME280;12670;53.502;10.252;2023-04-29T06:44:02;101107.56;;;10.89;100.00
16120;BME280;12670;53.502;10.252;2023-04-29T06:47:06;101104.69;;;11.18;100.00
16120;BME280;12670;53.502;10.252;2023-04-29T06:50:09;101116.00;;;11.24;100.00
16120;BME280;12670;53.502;10.252;2023-04-29T06:53:12;101109.59;;;11.06;100.00
16120;BME280;12670;53.502;10.252;2023-04-29T06:56:14;101121.53;;;11.17;100.00
16120;BME280;12670;53.502;10.252;2023-04-29T06:59:17;101126.69;;;11.22;100.00
16120;BME280;12670;53.502;10.252;2023-04-29T07:02:21;101123.84;;;11.27;100.00
16120;BME280;12670;53.502;10.252;2023-04-29T07:05:24;101140.56;;;11.52;100.00
16120;BME280;12670;53.502;10.252;2023-04-29T07:08:27;101130.03;;;11.27;100.00
16120;BME280;12670;53.502;10.252;2023-04-29T07:11:30;101143.63;;;11.41;100.00
16120;BME280;12670;53.502;10.252;2023-04-29T07:14:33;101142.63;;;11.67;100.00
16120;BME280;12670;53.502;10.252;2023-04-29T07:17:39;101147.81;;;11.70;100.00
16120;BME280;12670;53.502;10.252;2023-04-29T07:20:41;101137.97;;;11.51;100.00
16120;BME280;12670;53.502;10.252;2023-04-29T07:23:44;101145.16;;;11.70;100.00
16120;BME280;12670;53.502;10.252;2023-04-29T07:26:48;101139.56;;;11.55;98.99
16120;BME280;12670;53.502;10.252;2023-04-29T07:29:50;101148.78;;;11.91;97.03
16120;BME280;12670;53.502;10.252;2023-04-29T07:32:54;101156.16;;;12.27;99.48
16120;BME280;12670;53.502;10.252;2023-04-29T07:35:57;101163.03;;;12.33;96.91
16120;BME280;12670;53.502;10.252;2023-04-29T07:39:00;101165.16;;;12.65;97.26
16120;BME280;12670;53.502;10.252;2023-04-29T07:42:02;101176.63;;;12.67;95.87
16120;BME280;12670;53.502;10.252;2023-04-29T07:45:06;101177.78;;;12.80;91.75
16120;BME280;12670;53.502;10.252;2023-04-29T07:48:10;101181.13;;;12.65;88.57
16120;BME280;12670;53.502;10.252;2023-04-29T07:51:13;101177.59;;;12.65;89.61
16120;BME280;12670;53.502;10.252;2023-04-29T07:54:16;101173.88;;;12.69;89.40
16120;BME280;12670;53.502;10.252;2023-04-29T07:57:19;101178.72;;;12.59;89.01
16120;BME280;12670;53.502;10.252;2023-04-29T08:00:22;101182.38;;;12.77;88.52
16120;BME280;12670;53.502;10.252;2023-04-29T08:03:27;101181.56;;;12.95;86.93
16120;BME280;12670;53.502;10.252;2023-04-29T08:06:30;101191.69;;;12.87;86.02
16120;BME280;12670;53.502;10.252;2023-04-29T08:09:33;101196.13;;;13.07;85.20
16120;BME280;12670;53.502;10.252;2023-04-29T08:12:36;101203.22;;;12.88;84.33
16120;BME280;12670;53.502;10.252;2023-04-29T08:15:38;101206.75;;;13.08;86.43
16120;BME280;12670;53.502;10.252;2023-04-29T08:18:42;101219.47;;;13.22;85.20
16120;BME280;12670;53.502;10.252;2023-04-29T08:21:45;101219.91;;;13.12;83.00
16120;BME280;12670;53.502;10.252;2023-04-29T08:24:48;101224.31;;;13.33;82.47
16120;BME280;12670;53.502;10.252;2023-04-29T08:27:50;101225.75;;;13.40;84.37
16120;BME280;12670;53.502;10.252;2023-04-29T08:30:54;101232.81;;;13.41;80.67
16120;BME280;12670;53.502;10.252;2023-04-29T08:33:58;101226.34;;;13.47;82.20
16120;BME280;12670;53.502;10.252;2023-04-29T08:37:01;101232.91;;;13.77;81.31
16120;BME280;12670;53.502;10.252;2023-04-29T08:40:04;101235.69;;;14.12;81.21
16120;BME280;12670;53.502;10.252;2023-04-29T08:43:09;101243.03;;;14.26;80.10
16120;BME280;12670;53.502;10.252;2023-04-29T08:46:12;101246.03;;;14.37;77.33
16120;BME280;12670;53.502;10.252;2023-04-29T08:49:16;101262.50;;;14.64;80.22
16120;BME280;12670;53.502;10.252;2023-04-29T08:52:19;101249.16;;;14.64;74.93
16120;BME280;12670;53.502;10.252;2023-04-29T08:55:21;101259.75;;;14.83;73.10
16120;BME280;12670;53.502;10.252;2023-04-29T08:58:27;101255.00;;;14.89;72.81
16120;BME280;12670;53.502;10.252;2023-04-29T09:01:30;101254.41;;;15.00;71.96
16120;BME280;12670;53.502;10.252;2023-04-29T09:04:41;101265.19;;;14.99;71.06
16120;BME280;12670;53.502;10.252;2023-04-29T09:07:47;101266.13;;;14.80;71.16
16120;BME280;12670;53.502;10.252;2023-04-29T09:10:51;101258.13;;;15.48;71.32
16120;BME280;12670;53.502;10.252;2023-04-29T09:13:58;101260.72;;;15.50;65.64
16120;BME280;12670;53.502;10.252;2023-04-29T09:17:01;101260.94;;;15.45;68.30
16120;BME280;12670;53.502;10.252;2023-04-29T09:20:25;101261.06;;;15.59;67.12
16120;BME280;12670;53.502;10.252;2023-04-29T09:23:36;101272.16;;;15.52;67.43
16120;BME280;12670;53.502;10.252;2023-04-29T09:26:41;101266.06;;;15.50;64.88
16120;BME280;12670;53.502;10.252;2023-04-29T09:29:59;101262.88;;;15.92;65.47
16120;BME280;12670;53.502;10.252;2023-04-29T09:33:04;101275.97;;;16.12;63.30
16120;BME280;12670;53.502;10.252;2023-04-29T09:36:09;101269.00;;;15.61;63.93
16120;BME280;12670;53.502;10.252;2023-04-29T09:39:12;101275.47;;;15.90;61.07
16120;BME280;12670;53.502;10.252;2023-04-29T09:42:16;101276.66;;;16.00;63.30
16120;BME280;12670;53.502;10.252;2023-04-29T09:45:32;101284.13;;;15.95;60.76
16120;BME280;12670;53.502;10.252;2023-04-29T09:48:34;101292.19;;;16.41;61.48
16120;BME280;12670;53.502;10.252;2023-04-29T09:51:51;101291.63;;;16.20;61.11
16120;BME280;12670;53.502;10.252;2023-04-29T09:55:03;101291.19;;;16.43;59.93
16120;BME280;12670;53.502;10.252;2023-04-29T09:58:06;101291.28;;;16.42;58.97
16120;BME280;12670;53.502;10.252;2023-04-29T10:01:09;101297.75;;;16.53;57.85
16120;BME280;12670;53.502;10.252;2023-04-29T10:04:14;101298.47;;;17.31;60.28
16120;BME280;12670;53.502;10.252;2023-04-29T10:07:19;101299.06;;;17.51;56.35
16120;BME280;12670;53.502;10.252;2023-04-29T10:10:23;101288.06;;;16.97;59.75
16120;BME280;12670;53.502;10.252;2023-04-29T10:13:26;101295.69;;;17.19;57.74
16120;BME280;12670;53.502;10.252;2023-04-29T10:16:33;101291.00;;;17.51;61.44
16120;BME280;12670;53.502;10.252;2023-04-29T10:19:38;101292.78;;;17.08;60.21
16120;BME280;12670;53.502;10.252;2023-04-29T10:22:45;101289.66;;;16.69;61.34
16120;BME280;12670;53.502;10.252;2023-04-29T10:25:51;101291.22;;;17.48;61.00
16120;BME280;12670;53.502;10.252;2023-04-29T10:28:55;101282.81;;;17.82;58.62
16120;BME280;12670;53.502;10.252;2023-04-29T10:32:00;101289.91;;;17.83;57.56
16120;BME280;12670;53.502;10.252;2023-04-29T10:35:06;101284.59;;;17.39;59.62
16120;BME280;12670;53.502;10.252;2023-04-29T10:38:16;101280.06;;;18.11;57.57
16120;BME280;12670;53.502;10.252;2023-04-29T10:41:25;101290.47;;;18.71;54.83
16120;BME280;12670;53.502;10.252;2023-04-29T10:44:28;101292.66;;;18.37;55.54
16120;BME280;12670;53.502;10.252;2023-04-29T10:47:31;101287.28;;;17.96;55.99
16120;BME280;12670;53.502;10.252;2023-04-29T10:50:38;101293.53;;;19.05;54.82
16120;BME280;12670;53.502;10.252;2023-04-29T10:54:00;101293.09;;;18.98;51.24
16120;BME280;12670;53.502;10.252;2023-04-29T10:57:03;101291.53;;;18.69;51.97
16120;BME280;12670;53.502;10.252;2023-04-29T11:00:20;101294.47;;;18.64;51.95
16120;BME280;12670;53.502;10.252;2023-04-29T11:03:45;101300.47;;;18.55;52.92
16120;BME280;12670;53.502;10.252;2023-04-29T11:06:51;101292.97;;;19.65;49.39
16120;BME280;12670;53.502;10.252;2023-04-29T11:09:55;101298.66;;;19.48;48.55
16120;BME280;12670;53.502;10.252;2023-04-29T11:13:22;101298.97;;;19.56;47.30
16120;BME280;12670;53.502;10.252;2023-04-29T11:16:25;101307.31;;;20.15;46.63
16120;BME280;12670;53.502;10.252;2023-04-29T11:19:31;101298.28;;;19.01;47.49
16120;BME280;12670;53.502;10.252;2023-04-29T11:22:34;101313.41;;;18.62;49.60
16120;BME280;12670;53.502;10.252;2023-04-29T11:25:38;101314.00;;;18.26;48.94
16120;BME280;12670;53.502;10.252;2023-04-29T11:28:41;101310.03;;;18.73;51.95
16120;BME280;12670;53.502;10.252;2023-04-29T11:31:44;101321.72;;;18.45;49.55
16120;BME280;12670;53.502;10.252;2023-04-29T11:34:47;101323.38;;;17.33;51.39
16120;BME280;12670;53.502;10.252;2023-04-29T11:37:50;101326.56;;;17.54;51.48
16120;BME280;12670;53.502;10.252;2023-04-29T11:40:55;101328.16;;;17.73;50.08
16120;BME280;12670;53.502;10.252;2023-04-29T11:43:58;101322.31;;;17.95;51.49
16120;BME280;12670;53.502;10.252;2023-04-29T11:47:03;101327.47;;;17.98;52.10
16120;BME280;12670;53.502;10.252;2023-04-29T11:50:08;101323.19;;;18.36;52.25
16120;BME280;12670;53.502;10.252;2023-04-29T11:53:11;101333.94;;;18.78;48.97
16120;BME280;12670;53.502;10.252;2023-04-29T11:56:15;101340.47;;;18.74;49.26
16120;BME280;12670;53.502;10.252;2023-04-29T11:59:18;101334.56;;;18.81;48.80
16120;BME280;12670;53.502;10.252;2023-04-29T12:02:21;101341.44;;;18.73;50.49
16120;BME280;12670;53.502;10.252;2023-04-29T12:05:24;101332.44;;;18.86;47.12
16120;BME280;12670;53.502;10.252;2023-04-29T12:08:28;101342.91;;;19.04;48.90
16120;BME280;12670;53.502;10.252;2023-04-29T12:11:33;101345.13;;;18.84;46.94
16120;BME280;12670;53.502;10.252;2023-04-29T12:14:36;101342.00;;;18.36;49.54
16120;BME280;12670;53.502;10.252;2023-04-29T12:17:39;101344.59;;;18.65;48.60
16120;BME280;12670;53.502;10.252;2023-04-29T12:20:44;101355.75;;;18.03;47.37
16120;BME280;12670;53.502;10.252;2023-04-29T12:23:47;101350.72;;;17.54;49.28
16120;BME280;12670;53.502;10.252;2023-04-29T12:26:51;101348.84;;;18.55;49.20
16120;BME280;12670;53.502;10.252;2023-04-29T12:29:55;101350.16;;;19.29;47.30
16120;BME280;12670;53.502;10.252;2023-04-29T12:32:58;101347.94;;;18.27;47.42
16120;BME280;12670;53.502;10.252;2023-04-29T12:36:02;101345.06;;;18.30;49.43
16120;BME280;12670;53.502;10.252;2023-04-29T12:39:05;101355.94;;;18.56;49.44
16120;BME280;12670;53.502;10.252;2023-04-29T12:42:15;101351.50;;;19.49;47.37
16120;BME280;12670;53.502;10.252;2023-04-29T12:45:29;101358.63;;;20.01;44.59
16120;BME280;12670;53.502;10.252;2023-04-29T12:48:33;101349.59;;;19.76;44.53
16120;BME280;12670;53.502;10.252;2023-04-29T12:51:37;101346.16;;;19.61;46.57
16120;BME280;12670;53.502;10.252;2023-04-29T12:54:40;101341.88;;;20.58;43.50
16120;BME280;12670;53.502;10.252;2023-04-29T12:57:45;101353.25;;;20.01;44.20
16120;BME280;12670;53.502;10.252;2023-04-29T13:00:48;101349.69;;;19.87;45.14
16120;BME280;12670;53.502;10.252;2023-04-29T13:03:51;101352.25;;;20.02;43.57
16120;BME280;12670;53.502;10.252;2023-04-29T13:06:55;101343.97;;;19.41;43.70
16120;BME280;12670;53.502;10.252;2023-04-29T13:10:00;101352.38;;;20.00;45.58
16120;BME280;12670;53.502;10.252;2023-04-29T13:13:05;101341.56;;;19.24;44.68
16120;BME280;12670;53.502;10.252;2023-04-29T13:16:10;101355.19;;;19.08;44.54
16120;BME280;12670;53.502;10.252;2023-04-29T14:46:34;101418.81;;;17.82;45.79
16120;BME280;12670;53.502;10.252;2023-04-29T14:49:37;101421.97;;;17.74;47.08
16120;BME280;12670;53.502;10.252;2023-04-29T14:52:39;101424.91;;;17.70;46.48
16120;BME280;12670;53.502;10.252;2023-04-29T14:55:42;101433.16;;;17.67;47.39
16120;BME280;12670;53.502;10.252;2023-04-29T14:58:45;101430.19;;;17.41;46.21
16120;BME280;12670;53.502;10.252;2023-04-29T15:01:49;101428.28;;;17.13;47.59
16120;BME280;12670;53.502;10.252;2023-04-29T15:04:51;101437.69;;;17.36;46.94
16120;BME280;12670;53.502;10.252;2023-04-29T15:07:55;101441.81;;;17.72;46.74
16120;BME280;12670;53.502;10.252;2023-04-29T15:11:00;101435.88;;;17.21;46.89
16120;BME280;12670;53.502;10.252;2023-04-29T15:14:02;101430.13;;;16.97;47.72
16120;BME280;12670;53.502;10.252;2023-04-29T15:17:06;101442.31;;;17.18;47.46
16120;BME280;12670;53.502;10.252;2023-04-29T15:20:09;101440.09;;;16.95;47.77
16120;BME280;12670;53.502;10.252;2023-04-29T15:23:12;101443.78;;;16.92;47.69
16120;BME280;12670;53.502;10.252;2023-04-29T15:26:15;101436.53;;;16.78;47.82
16120;BME280;12670;53.502;10.252;2023-04-29T15:29:18;101444.94;;;16.72;48.13
16120;BME280;12670;53.502;10.252;2023-04-29T15:32:22;101443.13;;;16.40;48.72
16120;BME280;12670;53.502;10.252;2023-04-29T15:35:25;101444.03;;;16.23;50.44
16120;BME280;12670;53.502;10.252;2023-04-29T15:38:27;101454.50;;;16.27;50.39
16120;BME280;12670;53.502;10.252;2023-04-29T15:41:30;101460.75;;;15.95;52.54
16120;BME280;12670;53.502;10.252;2023-04-29T15:44:33;101455.22;;;15.98;53.72
16120;BME280;12670;53.502;10.252;2023-04-29T15:47:37;101450.75;;;15.81;55.45
16120;BME280;12670;53.502;10.252;2023-04-29T15:50:40;101456.53;;;16.40;54.41
16120;BME280;12670;53.502;10.252;2023-04-29T15:53:43;101474.41;;;16.06;54.11
16120;BME280;12670;53.502;10.252;2023-04-29T15:56:45;101475.66;;;15.99;53.96
16120;BME280;12670;53.502;10.252;2023-04-29T15:59:48;101474.91;;;15.62;53.59
16120;BME280;12670;53.502;10.252;2023-04-29T16:02:52;101488.88;;;15.50;54.02
16120;BME280;12670;53.502;10.252;2023-04-29T16:05:55;101486.50;;;15.27;53.91
16120;BME280;12670;53.502;10.252;2023-04-29T16:08:58;101484.59;;;15.29;55.07
16120;BME280;12670;53.502;10.252;2023-04-29T16:12:00;101487.41;;;15.08;55.78
16120;BME280;12670;53.502;10.252;2023-04-29T16:15:04;101492.97;;;15.04;56.78
16120;BME280;12670;53.502;10.252;2023-04-29T16:18:09;101504.94;;;14.57;56.25
16120;BME280;12670;53.502;10.252;2023-04-29T16:21:12;101502.78;;;14.65;56.85
16120;BME280;12670;53.502;10.252;2023-04-29T16:24:15;101504.53;;;14.66;57.74
16120;BME280;12670;53.502;10.252;2023-04-29T16:27:18;101505.97;;;14.92;57.73
16120;BME280;12670;53.502;10.252;2023-04-29T16:30:20;101498.16;;;14.88;58.36
16120;BME280;12670;53.502;10.252;2023-04-29T16:33:25;101502.91;;;15.00;57.60
16120;BME280;12670;53.502;10.252;2023-04-29T16:36:27;101511.03;;;14.61;56.65
16120;BME280;12670;53.502;10.252;2023-04-29T16:39:30;101511.09;;;14.39;58.14
16120;BME280;12670;53.502;10.252;2023-04-29T16:42:33;101506.88;;;14.14;60.79
16120;BME280;12670;53.502;10.252;2023-04-29T16:45:35;101518.75;;;14.07;61.48
16120;BME280;12670;53.502;10.252;2023-04-29T16:48:39;101517.13;;;14.24;61.24
16120;BME280;12670;53.502;10.252;2023-04-29T16:51:42;101527.78;;;14.24;60.82
16120;BME280;12670;53.502;10.252;2023-04-29T16:54:45;101521.25;;;14.51;60.38
16120;BME280;12670;53.502;10.252;2023-04-29T16:57:47;101523.94;;;14.51;59.14
16120;BME280;12670;53.502;10.252;2023-04-29T17:00:51;101527.94;;;14.21;59.08
16120;BME280;12670;53.502;10.252;2023-04-29T17:03:55;101529.94;;;14.16;59.31
16120;BME280;12670;53.502;10.252;2023-04-29T17:06:58;101532.81;;;13.48;61.22
16120;BME280;12670;53.502;10.252;2023-04-29T17:10:01;101536.66;;;13.41;62.07
16120;BME280;12670;53.502;10.252;2023-04-29T17:13:04;101546.97;;;13.50;61.52
16120;BME280;12670;53.502;10.252;2023-04-29T17:16:07;101535.69;;;13.44;62.82
16120;BME280;12670;53.502;10.252;2023-04-29T17:19:11;101544.38;;;13.49;62.78